Time;durP1;ratioP1;P1;durP2;ratioP2;P2;SDS_P1;SDS_P2;PMS_P1;PMS_P2;Temp;Humidity;BMP_temperature;BMP_pressure;BME280_temperature;BME280_humidity;BME280_pressure;Samples;Min_cycle;Max_cycle;Signal;HPM_P1;HPM_P2
2021/03/07 00:00:22;;;;;;;17.90;6.15;;;;;;;;;;4984463;28;20061;-79
2021/03/07 00:02:47;;;;;;;13.50;6.05;;;;;;;;;;5008956;28;20026;-79
2021/03/07 00:05:14;;;;;;;13.88;5.70;;;;;;;;;;5011509;28;20021;-79
2021/03/07 00:07:40;;;;;;;9.32;5.45;;;;;;;;;;5008615;28;20032;-80
2021/03/07 00:10:06;;;;;;;11.32;5.88;;;;;;;;;;5012825;28;20497;-79
2021/03/07 00:12:31;;;;;;;14.15;5.50;;;;;;;;;;4988034;28;20038;-79
2021/03/07 00:14:56;;;;;;;12.63;5.57;;;;;;;;;;5012191;28;20036;-79
2021/03/07 00:17:22;;;;;;;16.23;6.10;;;;;;;;;;5007118;28;20033;-81
2021/03/07 00:19:47;;;;;;;11.63;6.45;;;;;;;;;;5012737;28;20026;-80
2021/03/07 00:22:12;;;;;;;13.40;6.33;;;;;;;;;;4989694;28;20022;-79
2021/03/07 00:24:37;;;;;;;14.07;6.70;;;;;;;;;;4993744;28;20317;-82
2021/03/07 00:27:02;;;;;;;10.93;5.80;;;;;;;;;;5011436;28;20268;-82
2021/03/07 00:29:28;;;;;;;11.98;6.22;;;;;;;;;;4993861;28;20616;-81
2021/03/07 00:31:53;;;;;;;13.73;6.50;;;;;;;;;;5015685;28;20051;-82
2021/03/07 00:34:18;;;;;;;10.65;7.50;;;;;;;;;;4988467;28;20112;-82
2021/03/07 00:36:44;;;;;;;13.95;6.28;;;;;;;;;;5006983;28;20022;-82
2021/03/07 00:39:09;;;;;;;13.82;6.32;;;;;;;;;;5005372;28;20032;-82
2021/03/07 00:41:34;;;;;;;11.57;6.15;;;;;;;;;;4995724;28;20046;-82
2021/03/07 00:44:00;;;;;;;15.45;7.65;;;;;;;;;;4991780;28;20022;-80
2021/03/07 00:46:25;;;;;;;17.88;7.07;;;;;;;;;;5015483;28;20785;-80
2021/03/07 00:48:50;;;;;;;12.90;6.90;;;;;;;;;;5038121;28;20038;-80
2021/03/07 00:51:15;;;;;;;15.80;7.90;;;;;;;;;;5008600;28;20283;-80
2021/03/07 00:53:40;;;;;;;12.50;7.53;;;;;;;;;;5002832;28;20743;-80
2021/03/07 00:56:06;;;;;;;14.23;7.97;;;;;;;;;;5011144;28;20030;-80
2021/03/07 00:58:31;;;;;;;17.23;8.00;;;;;;;;;;5008840;28;20022;-80
2021/03/07 01:00:56;;;;;;;13.93;7.53;;;;;;;;;;5002878;28;20017;-80
2021/03/07 01:03:21;;;;;;;14.20;7.03;;;;;;;;;;4991312;28;20539;-80
2021/03/07 01:05:46;;;;;;;16.80;7.67;;;;;;;;;;5008558;28;20276;-80
2021/03/07 01:08:11;;;;;;;14.48;6.90;;;;;;;;;;5005665;28;20886;-80
2021/03/07 01:10:38;;;;;;;14.13;7.82;;;;;;;;;;5008825;28;20053;-80
2021/03/07 01:13:05;;;;;;;17.40;7.97;;;;;;;;;;5012916;28;20053;-80
2021/03/07 01:15:31;;;;;;;13.90;7.57;;;;;;;;;;4989754;28;20076;-80
2021/03/07 01:17:57;;;;;;;14.05;7.28;;;;;;;;;;5009300;28;20018;-81
2021/03/07 01:20:22;;;;;;;13.63;6.97;;;;;;;;;;5009289;28;20022;-80
2021/03/07 01:22:47;;;;;;;12.40;8.10;;;;;;;;;;5010674;28;20025;-80
2021/03/07 01:25:13;;;;;;;20.20;7.07;;;;;;;;;;4993758;28;20034;-80
2021/03/07 01:27:38;;;;;;;13.85;6.57;;;;;;;;;;5014355;28;20101;-80
2021/03/07 01:30:05;;;;;;;13.15;6.63;;;;;;;;;;4989491;28;20022;-80
2021/03/07 01:32:30;;;;;;;11.25;6.55;;;;;;;;;;5008555;28;20034;-81
2021/03/07 01:34:55;;;;;;;12.33;6.60;;;;;;;;;;5010639;28;20764;-82
2021/03/07 01:37:21;;;;;;;16.73;7.00;;;;;;;;;;5010742;28;20030;-82
2021/03/07 01:39:46;;;;;;;14.57;7.37;;;;;;;;;;5015627;28;20032;-82
2021/03/07 01:42:11;;;;;;;20.55;6.15;;;;;;;;;;5003418;28;20326;-83
2021/03/07 01:44:36;;;;;;;16.98;7.80;;;;;;;;;;4997535;28;20026;-82
2021/03/07 01:47:02;;;;;;;14.43;5.75;;;;;;;;;;4988053;28;20410;-82
2021/03/07 01:49:27;;;;;;;14.52;6.40;;;;;;;;;;5010187;28;20053;-82
2021/03/07 01:51:52;;;;;;;18.30;6.20;;;;;;;;;;5000638;28;20400;-82
2021/03/07 01:54:18;;;;;;;13.13;7.37;;;;;;;;;;5021340;28;20022;-83
2021/03/07 01:56:43;;;;;;;12.32;6.70;;;;;;;;;;5004712;28;20288;-82
2021/03/07 01:59:09;;;;;;;12.73;6.05;;;;;;;;;;5063182;23;20078;-83
2021/03/07 02:01:37;;;;;;;16.15;6.85;;;;;;;;;;5010018;28;20042;-81
2021/03/07 02:04:02;;;;;;;14.35;6.78;;;;;;;;;;5016285;28;20026;-81
2021/03/07 02:06:27;;;;;;;15.88;7.05;;;;;;;;;;4997911;28;20466;-81
2021/03/07 02:08:52;;;;;;;13.38;6.93;;;;;;;;;;5002911;28;20033;-81
2021/03/07 02:11:18;;;;;;;14.87;6.27;;;;;;;;;;4991754;28;20038;-81
2021/03/07 02:13:43;;;;;;;12.05;6.28;;;;;;;;;;4994849;28;20279;-81
2021/03/07 02:16:12;;;;;;;18.58;7.18;;;;;;;;;;5015919;28;20045;-81
2021/03/07 02:18:38;;;;;;;14.35;7.32;;;;;;;;;;4992388;28;20018;-82
2021/03/07 02:21:05;;;;;;;13.50;7.13;;;;;;;;;;4991157;28;20023;-80
2021/03/07 02:23:32;;;;;;;13.48;6.75;;;;;;;;;;5019669;28;20022;-80
2021/03/07 02:25:57;;;;;;;20.55;7.93;;;;;;;;;;4997094;28;20068;-81
2021/03/07 02:28:24;;;;;;;18.13;7.22;;;;;;;;;;5009999;28;20101;-81
2021/03/07 02:30:50;;;;;;;15.07;8.30;;;;;;;;;;4993575;28;20077;-81
2021/03/07 02:33:23;;;;;;;19.67;7.50;;;;;;;;;;5016396;28;20030;-81
2021/03/07 02:35:51;;;;;;;17.38;8.20;;;;;;;;;;4997593;28;20030;-81
2021/03/07 02:38:17;;;;;;;13.82;7.97;;;;;;;;;;5001373;28;20128;-81
2021/03/07 02:40:42;;;;;;;16.40;9.25;;;;;;;;;;5008681;28;20780;-81
2021/03/07 02:43:11;;;;;;;18.65;8.05;;;;;;;;;;5011720;28;20370;-81
2021/03/07 02:45:38;;;;;;;17.85;7.97;;;;;;;;;;5009199;28;20023;-80
2021/03/07 02:48:04;;;;;;;16.13;7.65;;;;;;;;;;4988575;28;20166;-80
2021/03/07 02:50:30;;;;;;;16.75;7.82;;;;;;;;;;5007262;28;20105;-80
2021/03/07 02:52:59;;;;;;;16.08;8.52;;;;;;;;;;5003934;28;20744;-80
2021/03/07 02:55:26;;;;;;;17.70;6.93;;;;;;;;;;4987583;28;20034;-80
2021/03/07 02:57:52;;;;;;;11.30;7.55;;;;;;;;;;5019147;28;20040;-81
2021/03/07 03:00:17;;;;;;;11.40;7.20;;;;;;;;;;5002507;28;20124;-81
2021/03/07 03:02:43;;;;;;;12.63;7.55;;;;;;;;;;4990475;28;20033;-81
2021/03/07 03:05:11;;;;;;;22.77;7.47;;;;;;;;;;5010117;28;20025;-82
2021/03/07 03:07:36;;;;;;;15.20;7.22;;;;;;;;;;5012926;28;20028;-80
2021/03/07 03:10:05;;;;;;;12.93;8.05;;;;;;;;;;4994568;28;20026;-81
2021/03/07 03:12:50;;;;;;;16.27;7.50;;;;;;;;;;5005366;28;20192;-83
2021/03/07 03:15:16;;;;;;;14.67;6.93;;;;;;;;;;5009916;28;20077;-83
2021/03/07 03:17:42;;;;;;;13.57;7.65;;;;;;;;;;4997346;28;20030;-83
2021/03/07 03:20:10;;;;;;;13.55;8.07;;;;;;;;;;5018686;28;20036;-83
2021/03/07 03:22:35;;;;;;;15.82;9.02;;;;;;;;;;5009023;28;20022;-83
2021/03/07 03:25:00;;;;;;;17.13;8.93;;;;;;;;;;4993952;28;20083;-83
2021/03/07 03:27:26;;;;;;;22.92;10.13;;;;;;;;;;4986971;28;20267;-84
2021/03/07 03:29:51;;;;;;;26.57;10.80;;;;;;;;;;5007602;28;20025;-84
2021/03/07 03:32:16;;;;;;;14.20;7.97;;;;;;;;;;4999881;28;20775;-84
2021/03/07 03:34:41;;;;;;;17.90;8.80;;;;;;;;;;4992351;28;20025;-84
2021/03/07 03:37:07;;;;;;;14.95;8.75;;;;;;;;;;4985591;28;20429;-83
2021/03/07 03:39:33;;;;;;;13.00;8.00;;;;;;;;;;4998217;28;20029;-83
2021/03/07 03:42:04;;;;;;;13.63;8.05;;;;;;;;;;4993046;28;20057;-84
2021/03/07 03:44:32;;;;;;;15.75;8.68;;;;;;;;;;4991195;28;20025;-84
2021/03/07 03:46:57;;;;;;;16.70;9.38;;;;;;;;;;4997021;28;20013;-83
2021/03/07 03:49:28;;;;;;;12.27;7.68;;;;;;;;;;5008335;28;20018;-83
2021/03/07 03:51:56;;;;;;;13.80;8.23;;;;;;;;;;5025995;28;20015;-82
2021/03/07 03:54:22;;;;;;;13.40;7.82;;;;;;;;;;5028547;28;20084;-83
2021/03/07 03:56:48;;;;;;;13.10;7.82;;;;;;;;;;4995184;28;20061;-82
2021/03/07 03:59:15;;;;;;;18.60;9.65;;;;;;;;;;4986506;28;20049;-84
2021/03/07 04:01:40;;;;;;;18.50;9.15;;;;;;;;;;4983153;28;20026;-81
2021/03/07 04:04:06;;;;;;;17.35;8.40;;;;;;;;;;4987710;28;20506;-82
2021/03/07 04:06:32;;;;;;;19.48;9.88;;;;;;;;;;4988233;28;20019;-82
2021/03/07 04:08:57;;;;;;;14.43;9.27;;;;;;;;;;4986447;28;20026;-82
2021/03/07 04:11:23;;;;;;;13.97;10.20;;;;;;;;;;4986449;28;20343;-81
2021/03/07 04:13:48;;;;;;;18.42;8.95;;;;;;;;;;4991463;28;20332;-81
2021/03/07 04:16:14;;;;;;;25.73;10.80;;;;;;;;;;4994917;28;20101;-80
2021/03/07 04:18:40;;;;;;;25.98;10.88;;;;;;;;;;4993415;28;20271;-82
2021/03/07 04:21:06;;;;;;;22.10;10.57;;;;;;;;;;4986801;28;20038;-82
2021/03/07 04:23:31;;;;;;;20.48;9.90;;;;;;;;;;4981663;28;20014;-80
2021/03/07 04:25:57;;;;;;;14.50;8.73;;;;;;;;;;4986384;28;20027;-79
2021/03/07 04:28:23;;;;;;;14.48;8.30;;;;;;;;;;4983387;28;20271;-79
2021/03/07 04:30:48;;;;;;;16.58;8.35;;;;;;;;;;4985951;28;20050;-81
2021/03/07 04:33:13;;;;;;;19.80;8.82;;;;;;;;;;4979838;28;20478;-82
2021/03/07 04:35:39;;;;;;;20.17;8.23;;;;;;;;;;4977501;28;20097;-82
2021/03/07 04:38:05;;;;;;;19.27;8.52;;;;;;;;;;4985227;28;20023;-82
2021/03/07 04:40:31;;;;;;;15.95;8.50;;;;;;;;;;4986123;28;20015;-82
2021/03/07 04:42:57;;;;;;;18.58;8.10;;;;;;;;;;4991864;28;20470;-82
2021/03/07 04:45:22;;;;;;;17.50;8.45;;;;;;;;;;4985077;28;20027;-81
2021/03/07 04:47:48;;;;;;;19.98;8.52;;;;;;;;;;4986178;28;20703;-85
2021/03/07 04:50:13;;;;;;;15.82;8.98;;;;;;;;;;4991539;28;20018;-86
2021/03/07 04:52:39;;;;;;;13.57;7.95;;;;;;;;;;4992625;28;20021;-86
2021/03/07 04:55:04;;;;;;;20.77;8.77;;;;;;;;;;4995618;28;20030;-86
2021/03/07 04:57:30;;;;;;;14.85;7.18;;;;;;;;;;4997725;28;20074;-86
2021/03/07 04:59:55;;;;;;;16.08;8.32;;;;;;;;;;5007721;28;20035;-86
2021/03/07 05:02:22;;;;;;;13.35;7.90;;;;;;;;;;4995619;28;20479;-86
2021/03/07 05:04:47;;;;;;;15.88;8.48;;;;;;;;;;4976926;28;20058;-86
2021/03/07 05:07:13;;;;;;;16.52;8.02;;;;;;;;;;4995310;28;20048;-86
2021/03/07 05:09:39;;;;;;;14.40;8.23;;;;;;;;;;4989274;28;20023;-86
2021/03/07 05:12:04;;;;;;;17.50;8.50;;;;;;;;;;5001022;28;20032;-86
2021/03/07 05:14:42;;;;;;;18.98;8.23;;;;;;;;;;4986185;28;20256;-86
2021/03/07 05:17:07;;;;;;;16.77;8.77;;;;;;;;;;4971005;28;20061;-86
2021/03/07 05:19:32;;;;;;;13.80;7.97;;;;;;;;;;4988371;28;20046;-83
2021/03/07 05:21:58;;;;;;;15.82;7.97;;;;;;;;;;4982047;28;20204;-79
2021/03/07 05:24:23;;;;;;;14.77;8.90;;;;;;;;;;4982848;28;20026;-79
2021/03/07 05:26:48;;;;;;;15.20;8.50;;;;;;;;;;4986805;28;20034;-79
2021/03/07 05:29:13;;;;;;;15.48;9.07;;;;;;;;;;4982874;28;20355;-79
2021/03/07 05:31:38;;;;;;;21.03;8.93;;;;;;;;;;4981349;28;20061;-80
2021/03/07 05:34:04;;;;;;;16.98;8.80;;;;;;;;;;4986572;28;20359;-79
2021/03/07 05:36:29;;;;;;;16.63;8.83;;;;;;;;;;4985477;28;20112;-79
2021/03/07 05:38:54;;;;;;;16.55;8.82;;;;;;;;;;4982940;28;20596;-79
2021/03/07 05:41:19;;;;;;;19.90;8.95;;;;;;;;;;4983371;28;20057;-80
2021/03/07 05:43:47;;;;;;;15.52;8.55;;;;;;;;;;4986393;28;20023;-81
2021/03/07 05:46:22;;;;;;;14.68;9.30;;;;;;;;;;4988575;28;20683;-82
2021/03/07 05:48:47;;;;;;;21.48;9.43;;;;;;;;;;4984322;28;20034;-82
2021/03/07 05:51:13;;;;;;;12.60;9.30;;;;;;;;;;4990124;28;20034;-81
2021/03/07 05:53:41;;;;;;;14.40;9.90;;;;;;;;;;4995790;28;20263;-80
2021/03/07 05:56:09;;;;;;;21.15;10.38;;;;;;;;;;4989961;28;20022;-82
2021/03/07 05:58:37;;;;;;;25.38;10.60;;;;;;;;;;5005558;28;20018;-82
2021/03/07 06:01:02;;;;;;;22.75;10.55;;;;;;;;;;5004623;28;20052;-81
2021/03/07 06:03:28;;;;;;;29.65;10.88;;;;;;;;;;5004955;28;20038;-79
2021/03/07 06:05:53;;;;;;;18.48;9.82;;;;;;;;;;4997054;28;20458;-80
2021/03/07 06:08:19;;;;;;;17.20;10.98;;;;;;;;;;5009606;28;20022;-81
2021/03/07 06:10:44;;;;;;;17.27;11.15;;;;;;;;;;4995805;28;20033;-81
2021/03/07 06:13:10;;;;;;;24.65;11.85;;;;;;;;;;4999670;28;20057;-81
2021/03/07 06:15:36;;;;;;;24.83;11.23;;;;;;;;;;4991176;28;20021;-82
2021/03/07 06:18:10;;;;;;;19.27;10.73;;;;;;;;;;5003398;28;20038;-82
2021/03/07 06:20:36;;;;;;;16.05;11.13;;;;;;;;;;4995749;28;20022;-79
2021/03/07 06:23:04;;;;;;;18.75;10.52;;;;;;;;;;5002129;28;20036;-80
2021/03/07 06:25:29;;;;;;;15.35;10.43;;;;;;;;;;5001429;28;20029;-80
2021/03/07 06:27:55;;;;;;;15.40;9.68;;;;;;;;;;5005394;28;20026;-80
2021/03/07 06:30:24;;;;;;;20.90;11.20;;;;;;;;;;4989300;28;20081;-81
2021/03/07 06:32:53;;;;;;;16.15;9.90;;;;;;;;;;4995376;28;20366;-80
2021/03/07 06:35:20;;;;;;;22.50;13.35;;;;;;;;;;5006116;28;20044;-80
2021/03/07 06:37:56;;;;;;;20.58;12.10;;;;;;;;;;4981469;28;20054;-80
2021/03/07 06:40:25;;;;;;;14.18;9.50;;;;;;;;;;5001550;28;20052;-82
2021/03/07 06:42:50;;;;;;;15.57;9.70;;;;;;;;;;5007719;28;20774;-81
2021/03/07 06:45:15;;;;;;;17.17;9.83;;;;;;;;;;4999154;28;20084;-82
2021/03/07 06:47:52;;;;;;;19.58;9.50;;;;;;;;;;5003281;28;20424;-81
2021/03/07 06:50:18;;;;;;;14.85;9.77;;;;;;;;;;4998919;28;20033;-81
2021/03/07 06:52:53;;;;;;;18.02;10.57;;;;;;;;;;4989498;28;20034;-81
2021/03/07 06:55:20;;;;;;;16.98;10.52;;;;;;;;;;5003869;28;20026;-81
2021/03/07 06:57:46;;;;;;;17.63;10.77;;;;;;;;;;5007844;28;20041;-81
2021/03/07 07:00:12;;;;;;;16.30;11.32;;;;;;;;;;4983081;28;20046;-81
2021/03/07 07:02:37;;;;;;;21.27;11.93;;;;;;;;;;4991361;28;20045;-80
2021/03/07 07:05:02;;;;;;;18.77;11.13;;;;;;;;;;5006186;28;20096;-80
2021/03/07 07:07:29;;;;;;;17.88;11.25;;;;;;;;;;5007238;28;20030;-80
2021/03/07 07:09:59;;;;;;;16.25;10.70;;;;;;;;;;4988437;28;20036;-80
2021/03/07 07:12:25;;;;;;;21.92;10.70;;;;;;;;;;5006071;28;20026;-80
2021/03/07 07:15:02;;;;;;;17.40;10.77;;;;;;;;;;4986665;28;20527;-80
2021/03/07 07:17:27;;;;;;;18.35;11.85;;;;;;;;;;5010977;28;20042;-81
2021/03/07 07:19:53;;;;;;;23.90;14.65;;;;;;;;;;5005771;28;20169;-80
2021/03/07 07:22:19;;;;;;;16.00;10.25;;;;;;;;;;5002045;28;20049;-79
2021/03/07 07:24:44;;;;;;;15.95;9.20;;;;;;;;;;4979738;28;20046;-81
2021/03/07 07:27:10;;;;;;;15.98;9.65;;;;;;;;;;5005464;28;20025;-81
2021/03/07 07:29:35;;;;;;;13.55;8.45;;;;;;;;;;5012228;28;20026;-80
2021/03/07 07:32:21;;;;;;;14.40;8.50;;;;;;;;;;5011992;28;20022;-81
2021/03/07 07:34:51;;;;;;;12.10;8.38;;;;;;;;;;4996146;28;20124;-82
2021/03/07 07:37:23;;;;;;;13.40;8.73;;;;;;;;;;5007735;28;20109;-81
2021/03/07 07:39:50;;;;;;;12.65;8.30;;;;;;;;;;5007045;28;20475;-81
2021/03/07 07:42:21;;;;;;;12.65;8.02;;;;;;;;;;5008715;28;20014;-81
2021/03/07 07:44:46;;;;;;;16.48;7.88;;;;;;;;;;5014791;28;20029;-80
2021/03/07 07:47:12;;;;;;;18.02;8.00;;;;;;;;;;5019785;28;20030;-81
2021/03/07 07:49:57;;;;;;;12.70;9.57;;;;;;;;;;5034660;28;20006;-79
2021/03/07 07:52:26;;;;;;;15.02;8.93;;;;;;;;;;5035289;28;20018;-81
2021/03/07 07:54:55;;;;;;;14.70;9.80;;;;;;;;;;5032155;28;20034;-81
2021/03/07 07:57:32;;;;;;;13.30;8.27;;;;;;;;;;5011971;28;20030;-80
2021/03/07 07:59:59;;;;;;;17.80;9.82;;;;;;;;;;5006622;28;20105;-80
2021/03/07 08:02:56;;;;;;;20.30;9.93;;;;;;;;;;4992078;28;20029;-81
2021/03/07 08:05:22;;;;;;;14.60;9.88;;;;;;;;;;4915402;29;20051;-80
2021/03/07 08:07:59;;;;;;;12.68;8.65;;;;;;;;;;4925456;29;20027;-79
2021/03/07 08:10:39;;;;;;;14.95;7.90;;;;;;;;;;4924328;29;20086;-79
2021/03/07 08:13:07;;;;;;;15.88;9.32;;;;;;;;;;4904536;29;20097;-79
2021/03/07 08:15:33;;;;;;;13.25;8.02;;;;;;;;;;4910544;29;20060;-79
2021/03/07 08:18:00;;;;;;;11.52;7.60;;;;;;;;;;4916537;29;20062;-79
2021/03/07 08:20:37;;;;;;;10.88;7.32;;;;;;;;;;4908325;29;20055;-79
2021/03/07 08:23:02;;;;;;;14.95;7.97;;;;;;;;;;4923436;29;20047;-79
2021/03/07 08:25:46;;;;;;;10.82;6.35;;;;;;;;;;4910547;29;20028;-79
2021/03/07 08:28:27;;;;;;;11.95;6.40;;;;;;;;;;4924939;29;20040;-79
2021/03/07 08:30:58;;;;;;;13.13;7.13;;;;;;;;;;4920632;29;20036;-79
2021/03/07 08:33:24;;;;;;;11.30;7.05;;;;;;;;;;4924880;29;20031;-79
2021/03/07 08:36:07;;;;;;;7.30;5.63;;;;;;;;;;4910780;29;20023;-79
2021/03/07 08:38:33;;;;;;;11.50;6.45;;;;;;;;;;4921930;29;20452;-79
2021/03/07 08:40:58;;;;;;;8.30;4.78;;;;;;;;;;4936405;28;20046;-79
2021/03/07 08:43:23;;;;;;;11.60;6.13;;;;;;;;;;4986042;28;20019;-79
2021/03/07 08:46:02;;;;;;;9.93;6.47;;;;;;;;;;4996673;28;20080;-79
2021/03/07 08:48:28;;;;;;;12.10;5.75;;;;;;;;;;4999228;28;20061;-78
2021/03/07 08:50:54;;;;;;;89.60;9.40;;;;;;;;;;4980506;28;20080;-79
2021/03/07 08:53:21;;;;;;;12.40;6.10;;;;;;;;;;5004259;28;20422;-78
2021/03/07 08:55:46;;;;;;;8.88;5.55;;;;;;;;;;4981229;28;20058;-78
2021/03/07 08:58:11;;;;;;;7.13;5.03;;;;;;;;;;4998240;28;20304;-78
2021/03/07 09:00:43;;;;;;;8.43;5.45;;;;;;;;;;5005988;28;20141;-78
2021/03/07 09:03:11;;;;;;;12.30;8.25;;;;;;;;;;4991178;28;20032;-78
2021/03/07 09:05:36;;;;;;;8.88;5.75;;;;;;;;;;5010911;28;20045;-78
2021/03/07 09:08:03;;;;;;;6.95;3.88;;;;;;;;;;4988714;28;20497;-78
2021/03/07 09:10:33;;;;;;;10.52;4.70;;;;;;;;;;5003376;28;20749;-78
2021/03/07 09:13:18;;;;;;;7.63;4.38;;;;;;;;;;5006458;28;20728;-78
2021/03/07 09:15:52;;;;;;;8.85;4.22;;;;;;;;;;5000876;28;20510;-78
2021/03/07 09:18:18;;;;;;;8.45;4.63;;;;;;;;;;5005313;28;20029;-78
2021/03/07 09:20:43;;;;;;;6.65;4.22;;;;;;;;;;4987955;28;20089;-79
2021/03/07 09:23:27;;;;;;;7.75;5.13;;;;;;;;;;5004757;28;20168;-79
2021/03/07 09:25:53;;;;;;;7.63;4.30;;;;;;;;;;4999031;28;20041;-78
2021/03/07 09:28:28;;;;;;;6.13;4.85;;;;;;;;;;5002484;28;20796;-78
2021/03/07 09:30:54;;;;;;;6.72;4.97;;;;;;;;;;5003498;28;20040;-78
2021/03/07 09:33:20;;;;;;;9.05;4.85;;;;;;;;;;5002192;28;20741;-79
2021/03/07 09:35:45;;;;;;;7.70;5.17;;;;;;;;;;4998310;28;20040;-78
2021/03/07 09:38:12;;;;;;;6.45;4.65;;;;;;;;;;5002830;28;20076;-78
2021/03/07 09:40:39;;;;;;;8.35;4.97;;;;;;;;;;5001013;28;20025;-79
2021/03/07 09:43:05;;;;;;;6.88;4.85;;;;;;;;;;4987473;28;20050;-78
2021/03/07 09:45:31;;;;;;;8.63;5.25;;;;;;;;;;4983509;28;20105;-78
2021/03/07 09:47:56;;;;;;;7.60;4.60;;;;;;;;;;5002148;28;20085;-78
2021/03/07 09:50:23;;;;;;;5.65;4.28;;;;;;;;;;4980679;28;20031;-78
2021/03/07 09:52:48;;;;;;;6.47;4.60;;;;;;;;;;5001622;28;20030;-79
2021/03/07 09:55:23;;;;;;;6.97;4.57;;;;;;;;;;4998437;28;20032;-78
2021/03/07 09:57:59;;;;;;;6.03;4.57;;;;;;;;;;4999628;28;20037;-78
2021/03/07 10:00:24;;;;;;;7.68;4.97;;;;;;;;;;4999618;28;20096;-79
2021/03/07 10:02:49;;;;;;;6.80;4.73;;;;;;;;;;5003289;28;20025;-78
2021/03/07 10:05:14;;;;;;;9.60;4.35;;;;;;;;;;4987145;28;20605;-80
2021/03/07 10:07:39;;;;;;;5.53;4.15;;;;;;;;;;5005496;28;20080;-79
2021/03/07 10:10:13;;;;;;;5.10;4.10;;;;;;;;;;5005285;28;20081;-77
2021/03/07 10:12:54;;;;;;;7.70;4.50;;;;;;;;;;4983229;28;20791;-80
2021/03/07 10:15:29;;;;;;;7.70;4.75;;;;;;;;;;5002623;28;20037;-80
2021/03/07 10:17:55;;;;;;;9.68;4.75;;;;;;;;;;4998114;28;20771;-79
2021/03/07 10:20:20;;;;;;;7.53;4.40;;;;;;;;;;4985241;28;20753;-79
2021/03/07 10:22:47;;;;;;;6.77;4.13;;;;;;;;;;4989308;28;20018;-80
2021/03/07 10:25:27;;;;;;;21.27;5.00;;;;;;;;;;4980743;28;20256;-80
2021/03/07 10:28:03;;;;;;;53.78;6.47;;;;;;;;;;4980112;28;20029;-80
2021/03/07 10:30:31;;;;;;;18.45;5.85;;;;;;;;;;4990623;28;20033;-80
2021/03/07 10:33:16;;;;;;;9.63;5.07;;;;;;;;;;5006679;28;20120;-80
2021/03/07 10:36:02;;;;;;;6.65;4.15;;;;;;;;;;5005067;28;20057;-80
2021/03/07 10:38:28;;;;;;;12.32;5.00;;;;;;;;;;4990836;28;20488;-79
2021/03/07 10:40:53;;;;;;;9.73;5.25;;;;;;;;;;4988331;28;20031;-80
2021/03/07 10:43:18;;;;;;;7.37;5.13;;;;;;;;;;5007459;28;20045;-80
2021/03/07 10:45:43;;;;;;;10.30;4.60;;;;;;;;;;5008726;28;20306;-81
2021/03/07 10:48:09;;;;;;;7.97;4.60;;;;;;;;;;5010876;28;20287;-81
2021/03/07 10:50:35;;;;;;;9.13;5.00;;;;;;;;;;5003429;28;20253;-81
2021/03/07 10:53:00;;;;;;;7.32;4.15;;;;;;;;;;5006897;28;20516;-80
2021/03/07 10:55:26;;;;;;;8.43;4.95;;;;;;;;;;5008680;28;20038;-79
2021/03/07 10:57:51;;;;;;;6.32;4.97;;;;;;;;;;4986994;28;20053;-80
2021/03/07 11:00:17;;;;;;;11.27;4.63;;;;;;;;;;4961639;28;805474;-80
2021/03/07 11:02:43;;;;;;;7.22;4.80;;;;;;;;;;5008707;28;20370;-79
2021/03/07 11:05:09;;;;;;;7.32;4.88;;;;;;;;;;5009782;28;20033;-80
2021/03/07 11:07:34;;;;;;;7.40;4.75;;;;;;;;;;5003094;28;20077;-80
2021/03/07 11:10:00;;;;;;;9.17;4.70;;;;;;;;;;4986918;28;20034;-80
2021/03/07 11:12:25;;;;;;;8.60;4.50;;;;;;;;;;5003891;28;20282;-80
2021/03/07 11:14:50;;;;;;;7.85;4.03;;;;;;;;;;5002791;28;20042;-80
2021/03/07 11:17:15;;;;;;;5.50;3.83;;;;;;;;;;4999623;28;20084;-80
2021/03/07 11:19:41;;;;;;;6.68;3.67;;;;;;;;;;5002008;28;20052;-80
2021/03/07 11:22:06;;;;;;;9.33;4.47;;;;;;;;;;4989495;28;20076;-80
2021/03/07 11:24:31;;;;;;;6.55;5.00;;;;;;;;;;5008546;28;20454;-80
2021/03/07 11:26:56;;;;;;;5.82;4.20;;;;;;;;;;5008026;28;20065;-79
2021/03/07 11:29:21;;;;;;;9.53;4.57;;;;;;;;;;5011547;28;20033;-79
2021/03/07 11:31:47;;;;;;;7.60;4.40;;;;;;;;;;5010453;28;20178;-80
2021/03/07 11:34:12;;;;;;;6.65;4.60;;;;;;;;;;4988703;28;20029;-80
2021/03/07 11:36:37;;;;;;;7.78;5.53;;;;;;;;;;4990578;28;20414;-80
2021/03/07 11:39:03;;;;;;;10.75;5.65;;;;;;;;;;5006136;28;20033;-80
2021/03/07 11:41:28;;;;;;;8.48;5.00;;;;;;;;;;4989833;28;20071;-80
2021/03/07 11:43:53;;;;;;;5.10;3.90;;;;;;;;;;4994722;28;20085;-79
2021/03/07 11:46:18;;;;;;;7.40;4.40;;;;;;;;;;5014311;28;20525;-79
2021/03/07 11:48:44;;;;;;;5.60;4.13;;;;;;;;;;4994579;28;20030;-79
2021/03/07 11:51:09;;;;;;;7.60;4.77;;;;;;;;;;5014546;28;20056;-80
2021/03/07 11:53:34;;;;;;;8.63;4.73;;;;;;;;;;5007392;28;20256;-79
2021/03/07 11:55:59;;;;;;;8.33;4.03;;;;;;;;;;5005995;28;20394;-80
2021/03/07 11:58:24;;;;;;;6.30;4.47;;;;;;;;;;5014762;28;20029;-80
2021/03/07 12:00:49;;;;;;;6.88;4.88;;;;;;;;;;4991683;28;20296;-80
2021/03/07 12:03:15;;;;;;;8.50;4.90;;;;;;;;;;4988564;28;20026;-79
2021/03/07 12:05:40;;;;;;;7.60;5.10;;;;;;;;;;4984528;28;20276;-81
2021/03/07 12:08:18;;;;;;;8.07;5.13;;;;;;;;;;4991885;28;20026;-81
2021/03/07 12:10:43;;;;;;;8.10;5.73;;;;;;;;;;4997178;28;20038;-80
2021/03/07 12:13:08;;;;;;;9.47;5.33;;;;;;;;;;5005094;28;20026;-81
2021/03/07 12:15:33;;;;;;;8.52;4.85;;;;;;;;;;4984188;28;20062;-80
2021/03/07 12:17:59;;;;;;;8.03;4.30;;;;;;;;;;4996622;28;20027;-81
2021/03/07 12:20:24;;;;;;;5.28;4.10;;;;;;;;;;4990342;28;20406;-80
2021/03/07 12:22:49;;;;;;;6.60;4.70;;;;;;;;;;5000859;28;20026;-80
2021/03/07 12:25:15;;;;;;;10.88;5.70;;;;;;;;;;4992078;28;20087;-80
2021/03/07 12:27:40;;;;;;;4.88;3.80;;;;;;;;;;4987395;28;20534;-80
2021/03/07 12:30:06;;;;;;;7.53;4.18;;;;;;;;;;4985380;28;20587;-79
2021/03/07 12:32:32;;;;;;;6.88;4.25;;;;;;;;;;4988122;28;20018;-79
2021/03/07 12:34:57;;;;;;;8.75;5.40;;;;;;;;;;4989760;28;20098;-79
2021/03/07 12:37:22;;;;;;;9.13;5.30;;;;;;;;;;4989734;28;20289;-79
2021/03/07 12:39:47;;;;;;;11.27;4.73;;;;;;;;;;4986284;28;20264;-80
2021/03/07 12:42:12;;;;;;;12.30;6.43;;;;;;;;;;4986650;28;20031;-80
2021/03/07 12:44:37;;;;;;;5.97;4.30;;;;;;;;;;4983960;28;20093;-79
2021/03/07 12:47:03;;;;;;;9.20;5.22;;;;;;;;;;4988247;28;20296;-80
2021/03/07 12:49:28;;;;;;;8.50;5.00;;;;;;;;;;4986827;28;20699;-80
2021/03/07 12:51:53;;;;;;;7.97;5.03;;;;;;;;;;4971907;28;20153;-80
2021/03/07 12:54:19;;;;;;;6.25;4.40;;;;;;;;;;4982984;28;20435;-80
2021/03/07 12:56:44;;;;;;;7.80;4.65;;;;;;;;;;4992129;28;20038;-80
2021/03/07 12:59:09;;;;;;;6.70;4.03;;;;;;;;;;4992202;28;20030;-80
2021/03/07 13:01:34;;;;;;;6.77;4.00;;;;;;;;;;4987975;28;20321;-80
2021/03/07 13:03:59;;;;;;;11.27;4.85;;;;;;;;;;4999221;28;20294;-80
2021/03/07 13:06:25;;;;;;;6.67;4.43;;;;;;;;;;4993004;28;20782;-80
2021/03/07 13:08:50;;;;;;;8.05;4.32;;;;;;;;;;5008946;28;20029;-80
2021/03/07 13:11:15;;;;;;;5.83;3.47;;;;;;;;;;5005640;28;20033;-80
2021/03/07 13:13:41;;;;;;;5.38;4.03;;;;;;;;;;4998467;28;20275;-80
2021/03/07 13:16:07;;;;;;;6.65;3.63;;;;;;;;;;4999599;28;20065;-80
2021/03/07 13:18:32;;;;;;;7.25;3.45;;;;;;;;;;5004219;28;20477;-80
2021/03/07 13:20:57;;;;;;;7.72;3.80;;;;;;;;;;5000561;28;20462;-79
2021/03/07 13:23:23;;;;;;;9.13;4.00;;;;;;;;;;5007584;28;20018;-79
2021/03/07 13:25:48;;;;;;;5.50;3.25;;;;;;;;;;5001856;28;20303;-80
2021/03/07 13:28:14;;;;;;;9.75;3.38;;;;;;;;;;4986175;28;20030;-79
2021/03/07 13:30:40;;;;;;;5.53;2.45;;;;;;;;;;4989167;28;20033;-80
2021/03/07 13:33:06;;;;;;;5.13;2.85;;;;;;;;;;4996235;28;20026;-80
2021/03/07 13:35:31;;;;;;;3.58;2.45;;;;;;;;;;4990782;28;20028;-81
2021/03/07 13:37:56;;;;;;;5.50;2.97;;;;;;;;;;5022777;28;20027;-80
2021/03/07 13:40:21;;;;;;;4.60;2.20;;;;;;;;;;5038138;28;20045;-80
2021/03/07 13:42:47;;;;;;;11.85;3.05;;;;;;;;;;5032756;28;20260;-80
2021/03/07 13:45:15;;;;;;;5.80;1.65;;;;;;;;;;5025408;28;20019;-80
2021/03/07 13:47:40;;;;;;;6.00;2.67;;;;;;;;;;5002472;28;20084;-80
2021/03/07 13:50:05;;;;;;;5.93;2.57;;;;;;;;;;5005491;28;20038;-80
2021/03/07 13:52:31;;;;;;;3.13;1.50;;;;;;;;;;5005879;28;20327;-80
2021/03/07 13:54:57;;;;;;;3.63;1.30;;;;;;;;;;4992874;28;20470;-79
2021/03/07 13:57:22;;;;;;;3.75;1.20;;;;;;;;;;5005427;28;20040;-79
2021/03/07 13:59:47;;;;;;;2.07;1.30;;;;;;;;;;5005724;28;20853;-80
2021/03/07 14:02:12;;;;;;;6.33;1.17;;;;;;;;;;4999520;28;20292;-80
2021/03/07 14:04:37;;;;;;;3.60;1.80;;;;;;;;;;4961870;28;20289;-80
2021/03/07 14:07:02;;;;;;;3.60;1.37;;;;;;;;;;4962758;28;20279;-80
2021/03/07 14:09:28;;;;;;;2.03;1.20;;;;;;;;;;4958273;28;20287;-79
2021/03/07 14:11:53;;;;;;;3.83;1.03;;;;;;;;;;4962151;28;20277;-79
2021/03/07 14:14:20;;;;;;;7.67;1.23;;;;;;;;;;4966244;28;20058;-81
2021/03/07 14:16:45;;;;;;;2.92;1.27;;;;;;;;;;4965792;28;20288;-80
2021/03/07 14:19:10;;;;;;;3.72;1.48;;;;;;;;;;4948773;28;20050;-80
2021/03/07 14:21:36;;;;;;;3.53;1.07;;;;;;;;;;4960077;28;20063;-80
2021/03/07 14:24:13;;;;;;;2.65;1.27;;;;;;;;;;4963181;28;20296;-80
2021/03/07 14:26:38;;;;;;;3.08;0.93;;;;;;;;;;4945269;28;20046;-81
2021/03/07 14:29:03;;;;;;;3.13;1.50;;;;;;;;;;4960724;28;20027;-80
2021/03/07 14:31:29;;;;;;;2.57;1.27;;;;;;;;;;4963794;28;20101;-81